Time;durP1;ratioP1;P1;durP2;ratioP2;P2;SDS_P1;SDS_P2;PMS_P1;PMS_P2;Temp;Humidity;BMP_temperature;BMP_pressure;BME280_temperature;BME280_humidity;BME280_pressure;Samples;Min_cycle;Max_cycle;Signal;HPM_P1;HPM_P2
2023/04/06 00:01:02;;;;;;;2.45;1.40;;;4.30;99.90;;;;;;5115945;28;20440;-59
2023/04/06 00:03:29;;;;;;;2.05;1.45;;;4.30;99.90;;;;;;5115491;28;20477;-59
2023/04/06 00:05:56;;;;;;;2.42;1.50;;;4.20;99.90;;;;;;5116139;28;20431;-59
2023/04/06 00:08:24;;;;;;;3.35;1.70;;;4.20;99.90;;;;;;5115491;28;20421;-59
2023/04/06 00:10:51;;;;;;;3.05;1.90;;;4.10;99.90;;;;;;5116025;28;20435;-59
2023/04/06 00:13:18;;;;;;;2.80;1.50;;;4.10;99.90;;;;;;5115314;28;20458;-59
2023/04/06 00:15:45;;;;;;;3.20;1.75;;;4.10;99.90;;;;;;5115895;28;20514;-58
2023/04/06 00:18:14;;;;;;;3.42;1.70;;;4.10;99.90;;;;;;5115396;28;20435;-59
2023/04/06 00:20:41;;;;;;;2.45;1.60;;;4.10;99.90;;;;;;5115160;28;20782;-58
2023/04/06 00:23:09;;;;;;;2.75;1.40;;;4.20;99.90;;;;;;5113904;28;20550;-59
2023/04/06 00:25:36;;;;;;;2.10;1.40;;;3.90;99.90;;;;;;5112598;28;20428;-59
2023/04/06 00:28:04;;;;;;;2.50;1.60;;;3.80;99.90;;;;;;5112812;28;20452;-58
2023/04/06 00:30:31;;;;;;;2.53;1.58;;;3.80;99.90;;;;;;5113564;28;20431;-58
2023/04/06 00:32:58;;;;;;;3.00;1.60;;;3.70;99.90;;;;;;5113096;28;20507;-59
2023/04/06 00:35:27;;;;;;;3.83;1.73;;;3.70;99.90;;;;;;5113924;28;20523;-59
2023/04/06 00:37:54;;;;;;;3.58;1.70;;;3.80;99.90;;;;;;5113766;28;20502;-59
2023/04/06 00:40:21;;;;;;;3.25;1.50;;;3.80;99.90;;;;;;5114291;28;20527;-59
2023/04/06 00:42:49;;;;;;;2.58;1.50;;;3.90;99.90;;;;;;5114102;28;21032;-58
2023/04/06 00:45:16;;;;;;;4.70;1.60;;;4.00;99.90;;;;;;5114711;28;20848;-59
2023/04/06 00:47:43;;;;;;;3.30;2.20;;;4.10;99.90;;;;;;5114888;28;20499;-59
2023/04/06 00:50:11;;;;;;;2.80;1.50;;;4.20;99.90;;;;;;5114568;28;20535;-59
2023/04/06 00:52:40;;;;;;;3.20;1.90;;;4.20;99.90;;;;;;5113959;28;20507;-59
2023/04/06 00:55:07;;;;;;;3.80;1.70;;;4.10;99.90;;;;;;5114791;28;20879;-59
2023/04/06 00:57:35;;;;;;;3.10;2.00;;;4.10;99.90;;;;;;5114893;28;20503;-60
2023/04/06 01:00:03;;;;;;;3.88;1.73;;;4.10;99.90;;;;;;5114798;28;20815;-59
2023/04/06 01:02:30;;;;;;;3.20;1.60;;;4.00;99.90;;;;;;5114471;28;20427;-59
2023/04/06 01:04:57;;;;;;;3.58;2.08;;;4.00;99.90;;;;;;5114571;28;20464;-59
2023/04/06 01:07:25;;;;;;;4.60;2.00;;;4.00;99.90;;;;;;5115164;28;20894;-58
2023/04/06 01:09:56;;;;;;;3.10;2.00;;;4.00;99.90;;;;;;5115110;28;20423;-59
2023/04/06 01:12:23;;;;;;;2.22;1.60;;;4.00;99.90;;;;;;5114821;28;20906;-59
2023/04/06 01:14:50;;;;;;;2.10;1.67;;;4.00;99.90;;;;;;5114850;28;21014;-59
2023/04/06 01:17:18;;;;;;;3.42;1.67;;;4.10;99.90;;;;;;5114984;28;20481;-58
2023/04/06 01:19:45;;;;;;;3.65;1.90;;;4.00;99.90;;;;;;5114562;28;20427;-59
2023/04/06 01:22:17;;;;;;;3.70;1.30;;;4.00;99.90;;;;;;5115427;28;20439;-60
2023/04/06 01:24:44;;;;;;;2.50;1.70;;;4.00;99.90;;;;;;5115391;28;20508;-58
2023/04/06 01:27:11;;;;;;;3.40;1.40;;;3.90;99.90;;;;;;5114677;28;20511;-58
2023/04/06 01:29:40;;;;;;;2.78;1.90;;;3.80;99.90;;;;;;5114845;28;20871;-58
2023/04/06 01:32:08;;;;;;;2.93;1.90;;;3.70;99.90;;;;;;5115258;28;20475;-59
2023/04/06 01:34:35;;;;;;;2.50;1.80;;;3.70;99.90;;;;;;5114966;28;20420;-59
2023/04/06 01:37:03;;;;;;;3.50;1.80;;;3.70;99.90;;;;;;5115073;28;20419;-59
2023/04/06 01:39:31;;;;;;;2.80;1.80;;;3.70;99.90;;;;;;5117615;28;20886;-59
2023/04/06 01:41:59;;;;;;;2.33;1.90;;;3.60;99.90;;;;;;5119078;28;20843;-58
2023/04/06 01:44:26;;;;;;;2.60;1.50;;;3.60;99.90;;;;;;5119119;28;20502;-58
2023/04/06 01:46:54;;;;;;;2.20;1.70;;;3.60;99.90;;;;;;5119194;28;20750;-59
2023/04/06 01:49:21;;;;;;;2.00;1.50;;;3.70;99.90;;;;;;5118674;28;20426;-58
2023/04/06 01:51:48;;;;;;;2.10;1.30;;;3.60;99.90;;;;;;5118094;28;20869;-59
2023/04/06 01:54:15;;;;;;;3.05;1.70;;;3.60;99.90;;;;;;5118810;28;20455;-58
2023/04/06 01:56:44;;;;;;;2.50;1.60;;;3.50;99.90;;;;;;5118072;28;20474;-58
2023/04/06 01:59:11;;;;;;;2.63;1.80;;;3.50;99.90;;;;;;5117758;28;20891;-58
2023/04/06 02:01:38;;;;;;;3.05;1.40;;;3.50;99.90;;;;;;5117522;28;20432;-58
2023/04/06 02:04:06;;;;;;;3.77;2.00;;;3.50;99.90;;;;;;5118491;28;20543;-58
2023/04/06 02:06:33;;;;;;;3.00;1.80;;;3.40;99.90;;;;;;5117747;28;20514;-58
2023/04/06 02:09:00;;;;;;;3.20;1.90;;;3.40;99.90;;;;;;5116218;28;20507;-59
2023/04/06 02:11:27;;;;;;;2.90;1.80;;;3.40;99.90;;;;;;5116748;28;20518;-59
2023/04/06 02:13:56;;;;;;;4.55;2.47;;;3.40;99.90;;;;;;5116471;28;20894;-59
2023/04/06 02:16:24;;;;;;;3.00;2.00;;;3.40;99.90;;;;;;5116819;28;20456;-60
2023/04/06 02:18:51;;;;;;;3.70;1.60;;;3.40;99.90;;;;;;5116334;28;20408;-59
2023/04/06 02:21:20;;;;;;;3.67;1.70;;;3.40;99.90;;;;;;5116630;28;20519;-61
2023/04/06 02:23:47;;;;;;;2.50;1.50;;;3.40;99.90;;;;;;5117714;28;20775;-58
2023/04/06 02:26:15;;;;;;;3.28;1.75;;;3.40;99.90;;;;;;5117981;28;20424;-58
2023/04/06 02:28:42;;;;;;;2.80;1.70;;;3.40;99.90;;;;;;5116935;28;20522;-59
2023/04/06 02:31:10;;;;;;;4.07;1.83;;;3.40;99.90;;;;;;5116161;28;20936;-58
2023/04/06 02:33:38;;;;;;;2.70;1.63;;;3.40;99.90;;;;;;5116907;28;20469;-57
2023/04/06 02:36:05;;;;;;;2.65;2.00;;;3.30;99.90;;;;;;5117471;28;20807;-57
2023/04/06 02:38:32;;;;;;;4.00;1.90;;;3.30;99.90;;;;;;5117427;28;20455;-58
2023/04/06 02:41:00;;;;;;;3.10;1.70;;;3.20;99.90;;;;;;5117630;28;20519;-58
2023/04/06 02:43:27;;;;;;;3.25;1.65;;;3.20;99.90;;;;;;5117406;28;20435;-58
2023/04/06 02:45:54;;;;;;;2.53;1.80;;;3.20;99.90;;;;;;5117852;28;20597;-58
2023/04/06 02:48:23;;;;;;;4.03;2.00;;;3.30;99.90;;;;;;5118162;28;20841;-59
2023/04/06 02:50:50;;;;;;;2.50;1.70;;;3.30;99.90;;;;;;5117116;28;20511;-58
2023/04/06 02:53:17;;;;;;;3.38;1.75;;;3.30;99.90;;;;;;5117318;28;20420;-59
2023/04/06 02:55:45;;;;;;;3.95;1.70;;;3.30;99.90;;;;;;5116948;28;20473;-59
2023/04/06 02:58:12;;;;;;;4.55;2.38;;;3.30;99.90;;;;;;5117633;28;20447;-58
2023/04/06 03:00:39;;;;;;;3.85;1.70;;;3.30;99.90;;;;;;5117231;28;20781;-59
2023/04/06 03:03:07;;;;;;;3.70;1.90;;;3.30;99.90;;;;;;5117080;28;20428;-56
2023/04/06 03:05:36;;;;;;;1.95;1.73;;;3.30;99.90;;;;;;5115429;28;20432;-57
2023/04/06 03:08:03;;;;;;;3.78;1.90;;;3.30;99.90;;;;;;5116939;28;20506;-57
2023/04/06 03:10:30;;;;;;;3.63;1.90;;;3.30;99.90;;;;;;5116881;28;20484;-59
2023/04/06 03:12:57;;;;;;;3.28;1.80;;;3.10;99.90;;;;;;5116643;28;20892;-59
2023/04/06 03:15:25;;;;;;;3.58;1.90;;;3.10;99.90;;;;;;5116737;28;20515;-59
2023/04/06 03:17:52;;;;;;;2.90;2.08;;;3.10;99.90;;;;;;5116420;28;20448;-59
2023/04/06 03:20:19;;;;;;;2.88;2.00;;;3.10;99.90;;;;;;5116786;28;20882;-59
2023/04/06 03:22:48;;;;;;;2.58;1.70;;;3.00;99.90;;;;;;5116786;28;20931;-57
2023/04/06 03:25:15;;;;;;;4.20;1.50;;;3.10;99.90;;;;;;5116023;28;20518;-59
2023/04/06 03:27:42;;;;;;;4.00;1.73;;;3.00;99.90;;;;;;5114262;28;20477;-58
2023/04/06 03:30:10;;;;;;;3.00;1.50;;;3.00;99.90;;;;;;5114799;28;20430;-57
2023/04/06 03:32:38;;;;;;;2.60;1.80;;;3.00;99.90;;;;;;5114389;28;20870;-58
2023/04/06 03:35:06;;;;;;;4.85;2.20;;;3.00;99.90;;;;;;5115260;28;20519;-58
2023/04/06 03:37:33;;;;;;;3.92;1.95;;;3.10;99.90;;;;;;5115532;28;20416;-58
2023/04/06 03:40:02;;;;;;;3.72;2.67;;;3.20;99.90;;;;;;5115489;28;20420;-59
2023/04/06 03:42:29;;;;;;;5.65;2.58;;;3.20;99.90;;;;;;5116153;28;20457;-58
2023/04/06 03:44:56;;;;;;;4.28;3.00;;;3.40;99.90;;;;;;5115773;28;20730;-57
2023/04/06 03:47:24;;;;;;;4.28;2.70;;;3.40;99.90;;;;;;5116354;28;20503;-61
2023/04/06 03:49:51;;;;;;;5.15;2.20;;;3.40;99.90;;;;;;5116305;28;20510;-59
2023/04/06 03:52:18;;;;;;;4.28;2.70;;;3.30;99.90;;;;;;5115649;28;20419;-57
2023/04/06 03:54:46;;;;;;;3.67;2.33;;;3.20;99.90;;;;;;5115966;28;20492;-58
2023/04/06 03:57:15;;;;;;;5.20;2.30;;;3.20;99.90;;;;;;5115591;28;20787;-58
2023/04/06 03:59:42;;;;;;;3.97;2.60;;;3.20;99.90;;;;;;5114558;28;20423;-58
2023/04/06 04:02:09;;;;;;;4.07;2.33;;;3.20;99.90;;;;;;5114176;28;20912;-59
2023/04/06 04:04:36;;;;;;;4.00;2.00;;;3.20;99.90;;;;;;5114549;28;20477;-58
2023/04/06 04:07:04;;;;;;;4.93;2.45;;;3.90;99.90;;;;;;5114982;28;20416;-57
2023/04/06 04:09:31;;;;;;;3.60;2.60;;;4.20;99.90;;;;;;5115054;28;20726;-57
2023/04/06 04:11:58;;;;;;;2.80;2.28;;;4.10;99.90;;;;;;5114226;28;20519;-59
2023/04/06 04:14:27;;;;;;;4.00;2.77;;;3.90;99.90;;;;;;5115345;28;20715;-59
2023/04/06 04:16:54;;;;;;;3.88;2.60;;;3.80;99.90;;;;;;5115479;28;20510;-59
2023/04/06 04:19:21;;;;;;;3.20;2.50;;;3.50;99.90;;;;;;5115554;28;20946;-59
2023/04/06 04:21:48;;;;;;;3.25;2.13;;;3.40;99.90;;;;;;5116077;28;20423;-59
2023/04/06 04:24:16;;;;;;;4.13;2.20;;;3.30;99.90;;;;;;5115460;28;20690;-59
2023/04/06 04:26:44;;;;;;;3.40;2.20;;;3.20;99.90;;;;;;5115809;28;20428;-59
2023/04/06 04:29:11;;;;;;;5.70;2.40;;;3.20;99.90;;;;;;5115111;28;20426;-61
2023/04/06 04:31:40;;;;;;;3.50;2.10;;;3.10;99.90;;;;;;5113692;28;20791;-59
2023/04/06 04:34:07;;;;;;;6.05;2.88;;;3.10;99.90;;;;;;5115715;28;20531;-59
2023/04/06 04:36:35;;;;;;;4.20;2.50;;;3.10;99.90;;;;;;5113594;28;20443;-59
2023/04/06 04:39:02;;;;;;;4.75;2.40;;;3.10;99.90;;;;;;5113045;28;20907;-59
2023/04/06 04:41:29;;;;;;;4.30;2.70;;;3.10;99.90;;;;;;5114772;28;20531;-59
2023/04/06 04:43:56;;;;;;;4.03;2.30;;;3.10;99.90;;;;;;5114742;28;20471;-59
2023/04/06 04:46:23;;;;;;;3.85;2.42;;;3.10;99.90;;;;;;5114308;28;20507;-59
2023/04/06 04:48:52;;;;;;;5.50;3.00;;;3.10;99.90;;;;;;5114448;28;20451;-59
2023/04/06 04:51:19;;;;;;;4.10;2.30;;;3.10;99.90;;;;;;5114079;28;20518;-59
2023/04/06 04:53:47;;;;;;;3.97;2.40;;;3.20;99.90;;;;;;5114468;28;20426;-59
2023/04/06 04:56:14;;;;;;;5.00;2.60;;;3.20;99.90;;;;;;5114322;28;20527;-60
2023/04/06 04:58:41;;;;;;;3.35;2.10;;;3.20;99.90;;;;;;5111868;28;20874;-59
2023/04/06 05:01:09;;;;;;;5.97;2.85;;;3.20;99.90;;;;;;5114041;28;20594;-58
2023/04/06 05:03:38;;;;;;;3.47;2.70;;;3.20;99.90;;;;;;5113859;28;20435;-59
2023/04/06 05:06:07;;;;;;;5.50;2.50;;;3.30;99.90;;;;;;5112357;28;20424;-59
2023/04/06 05:08:34;;;;;;;4.20;2.75;;;3.20;99.90;;;;;;5113877;28;20416;-61
2023/04/06 05:11:02;;;;;;;4.40;2.50;;;3.20;99.90;;;;;;5113368;28;20518;-59
2023/04/06 05:13:30;;;;;;;6.32;3.53;;;3.20;99.90;;;;;;5115274;28;20507;-58
2023/04/06 05:15:58;;;;;;;3.75;2.63;;;3.10;99.90;;;;;;5116802;28;20415;-57
2023/04/06 05:18:25;;;;;;;2.72;2.00;;;3.50;99.90;;;;;;5117203;28;20773;-59
2023/04/06 05:20:53;;;;;;;3.92;2.50;;;4.10;99.90;;;;;;5117238;28;20509;-58
2023/04/06 05:23:21;;;;;;;3.28;2.40;;;4.40;99.90;;;;;;5114947;28;20928;-58
2023/04/06 05:25:49;;;;;;;3.42;2.60;;;4.80;99.90;;;;;;5116176;28;20481;-60
2023/04/06 05:28:16;;;;;;;5.60;2.72;;;5.00;99.90;;;;;;5116524;28;20476;-59
2023/04/06 05:30:44;;;;;;;4.50;2.30;;;5.30;99.90;;;;;;5117046;28;20510;-60
2023/04/06 05:33:11;;;;;;;5.03;2.67;;;5.40;99.90;;;;;;5114923;28;20416;-58
2023/04/06 05:35:38;;;;;;;7.30;3.75;;;5.30;99.90;;;;;;5117420;28;20691;-58
2023/04/06 05:38:09;;;;;;;5.10;3.17;;;5.10;99.90;;;;;;5116271;28;20503;-59
2023/04/06 05:40:38;;;;;;;4.40;2.60;;;5.30;99.90;;;;;;5117132;28;20815;-59
2023/04/06 05:43:05;;;;;;;4.43;2.60;;;5.30;99.90;;;;;;5115577;28;20467;-58
2023/04/06 05:45:32;;;;;;;4.53;2.80;;;5.20;99.90;;;;;;5116963;28;20514;-59
2023/04/06 05:47:59;;;;;;;5.10;2.60;;;5.20;99.90;;;;;;5114639;28;20887;-59
2023/04/06 05:50:26;;;;;;;5.63;3.30;;;5.30;99.90;;;;;;5114855;28;20565;-59
2023/04/06 05:52:54;;;;;;;4.20;2.60;;;5.20;99.90;;;;;;5116537;28;20408;-57
2023/04/06 05:55:21;;;;;;;3.50;2.50;;;4.90;99.90;;;;;;5114361;28;20503;-59
2023/04/06 05:57:50;;;;;;;5.88;3.20;;;4.80;99.90;;;;;;5114057;28;20416;-58
2023/04/06 06:00:17;;;;;;;3.50;2.80;;;4.60;99.90;;;;;;5117276;28;20428;-59
2023/04/06 06:02:45;;;;;;;3.88;2.60;;;4.30;99.90;;;;;;5114316;28;20499;-58
2023/04/06 06:05:12;;;;;;;4.78;3.08;;;4.70;99.90;;;;;;5117206;28;20424;-59
2023/04/06 06:07:39;;;;;;;5.30;2.70;;;5.00;99.90;;;;;;5115599;28;20538;-59
2023/04/06 06:10:08;;;;;;;3.42;2.60;;;5.40;99.90;;;;;;5116618;28;20428;-58
2023/04/06 06:12:35;;;;;;;7.05;3.22;;;5.60;99.90;;;;;;5115538;28;20415;-57
2023/04/06 06:15:05;;;;;;;4.40;3.45;;;5.50;99.90;;;;;;5115134;28;20775;-59
2023/04/06 06:17:32;;;;;;;5.28;3.72;;;5.20;99.90;;;;;;5115877;28;20638;-57
2023/04/06 06:19:59;;;;;;;6.95;3.95;;;4.90;99.90;;;;;;5112090;28;20432;-58
2023/04/06 06:22:27;;;;;;;5.03;3.90;;;4.70;99.90;;;;;;5117458;28;20461;-58
2023/04/06 06:24:54;;;;;;;5.10;3.55;;;4.70;99.90;;;;;;5114045;28;20774;-58
2023/04/06 06:27:22;;;;;;;4.70;3.13;;;4.70;99.90;;;;;;5111834;28;20464;-58
2023/04/06 06:29:49;;;;;;;5.63;3.85;;;4.80;99.90;;;;;;5093796;28;20414;-57
2023/04/06 06:32:18;;;;;;;5.53;3.45;;;4.80;99.90;;;;;;5094346;28;20772;-58
2023/04/06 06:34:45;;;;;;;4.35;3.22;;;5.20;99.90;;;;;;5095337;28;20414;-56
2023/04/06 06:37:12;;;;;;;5.70;4.00;;;5.10;99.90;;;;;;5094319;28;20520;-55
2023/04/06 06:39:40;;;;;;;5.22;3.42;;;5.10;99.90;;;;;;5115125;28;20509;-54
2023/04/06 06:42:07;;;;;;;7.10;4.50;;;5.10;99.90;;;;;;5113392;28;20420;-56
2023/04/06 06:44:34;;;;;;;5.85;3.65;;;5.00;99.90;;;;;;5114936;28;20852;-55
2023/04/06 06:47:01;;;;;;;4.13;3.38;;;5.00;99.90;;;;;;5115536;28;20515;-53
2023/04/06 06:49:30;;;;;;;5.57;3.20;;;5.10;99.90;;;;;;5115870;28;20420;-56
2023/04/06 06:51:57;;;;;;;5.30;3.50;;;5.00;99.90;;;;;;5113077;28;20463;-55
2023/04/06 06:54:24;;;;;;;5.82;3.72;;;5.00;99.90;;;;;;5114036;28;20447;-56
2023/04/06 06:56:52;;;;;;;4.90;3.30;;;5.00;99.90;;;;;;5114791;28;20507;-55
2023/04/06 06:59:20;;;;;;;5.67;3.13;;;5.10;99.90;;;;;;5099077;28;20536;-58
2023/04/06 07:01:47;;;;;;;4.72;3.40;;;5.20;99.90;;;;;;5095333;28;20850;-58
2023/04/06 07:04:14;;;;;;;5.70;3.17;;;5.20;99.90;;;;;;5094192;28;20485;-56
2023/04/06 07:06:43;;;;;;;5.23;3.50;;;5.30;99.90;;;;;;5092302;28;20434;-58
2023/04/06 07:09:10;;;;;;;3.85;2.80;;;5.40;99.90;;;;;;5093191;28;20508;-59
2023/04/06 07:11:38;;;;;;;5.50;3.80;;;5.50;99.90;;;;;;5093271;28;20450;-58
2023/04/06 07:14:05;;;;;;;5.00;3.03;;;5.60;99.90;;;;;;5109073;28;20792;-57
2023/04/06 07:16:32;;;;;;;4.60;3.00;;;5.70;99.90;;;;;;5095023;28;20919;-62
2023/04/06 07:19:00;;;;;;;5.47;3.60;;;5.80;99.90;;;;;;5092829;28;20749;-56
2023/04/06 07:21:27;;;;;;;6.30;3.50;;;5.90;99.90;;;;;;5096648;28;20513;-57
2023/04/06 07:23:55;;;;;;;4.93;3.00;;;6.00;99.90;;;;;;5111964;28;20527;-58
2023/04/06 07:26:23;;;;;;;4.50;3.00;;;6.10;99.90;;;;;;5096224;28;21086;-59
2023/04/06 07:28:50;;;;;;;5.30;3.05;;;6.20;99.90;;;;;;5111790;28;20496;-59
2023/04/06 07:31:18;;;;;;;6.30;3.40;;;6.30;99.90;;;;;;5114591;28;20519;-58
2023/04/06 07:33:46;;;;;;;5.75;3.47;;;6.30;99.90;;;;;;5113352;28;20891;-58
2023/04/06 07:36:14;;;;;;;5.40;3.20;;;6.40;99.90;;;;;;5112195;28;20432;-59
2023/04/06 07:38:42;;;;;;;5.55;3.30;;;6.50;99.90;;;;;;5113449;28;20502;-58
2023/04/06 07:41:12;;;;;;;6.40;4.00;;;6.60;99.90;;;;;;5112355;28;20515;-59
2023/04/06 07:43:39;;;;;;;5.07;3.42;;;6.70;99.90;;;;;;5113081;28;20566;-59
2023/04/06 07:46:07;;;;;;;5.90;3.53;;;6.80;99.90;;;;;;5112556;28;20513;-59
2023/04/06 07:48:37;;;;;;;7.35;3.30;;;7.00;99.90;;;;;;5110042;28;20422;-59
2023/04/06 07:51:06;;;;;;;4.15;3.33;;;7.20;99.90;;;;;;5100689;28;20438;-59
2023/04/06 07:53:34;;;;;;;7.97;4.10;;;7.30;99.90;;;;;;5092184;28;20428;-58
2023/04/06 07:56:04;;;;;;;6.10;3.85;;;7.40;99.90;;;;;;5093216;28;20438;-59
2023/04/06 07:58:35;;;;;;;7.68;3.88;;;7.50;99.90;;;;;;5094100;28;20516;-59
2023/04/06 08:01:03;;;;;;;7.05;5.68;;;7.60;99.90;;;;;;5096975;28;20436;-59
2023/04/06 08:03:30;;;;;;;7.15;6.13;;;7.60;99.90;;;;;;5105079;28;20879;-58
2023/04/06 08:06:01;;;;;;;8.70;5.82;;;7.60;99.90;;;;;;5091684;28;20526;-59
2023/04/06 08:08:28;;;;;;;7.35;4.93;;;7.60;99.90;;;;;;5096048;28;20422;-59
2023/04/06 08:10:56;;;;;;;8.90;6.00;;;7.80;99.90;;;;;;5091233;28;20473;-59
2023/04/06 08:13:24;;;;;;;7.35;6.05;;;8.00;99.90;;;;;;5092701;28;20426;-59
2023/04/06 08:15:54;;;;;;;6.15;4.78;;;8.20;99.90;;;;;;5096344;28;20515;-60
2023/04/06 08:18:21;;;;;;;6.20;5.20;;;8.40;99.90;;;;;;5114228;28;20847;-60
2023/04/06 08:20:49;;;;;;;7.07;5.72;;;8.50;99.90;;;;;;5108189;28;20428;-59
2023/04/06 08:23:17;;;;;;;10.07;5.28;;;8.60;99.90;;;;;;5110670;28;20512;-60
2023/04/06 08:25:45;;;;;;;9.13;6.47;;;8.60;99.90;;;;;;5110660;28;20796;-60
2023/04/06 08:28:12;;;;;;;6.72;5.70;;;8.70;99.90;;;;;;5090915;28;20475;-59
2023/04/06 08:30:41;;;;;;;6.72;4.70;;;8.90;99.90;;;;;;5107496;28;20559;-61
2023/04/06 08:33:10;;;;;;;6.43;5.43;;;9.10;99.90;;;;;;5109899;28;20423;-59
2023/04/06 08:35:38;;;;;;;8.18;5.35;;;9.10;99.90;;;;;;5100587;28;20742;-59
2023/04/06 08:38:07;;;;;;;7.82;5.43;;;9.00;99.90;;;;;;5097111;28;20748;-59
2023/04/06 08:40:39;;;;;;;7.85;5.78;;;9.00;99.90;;;;;;5109305;28;20719;-60
2023/04/06 08:43:11;;;;;;;8.57;5.72;;;9.00;99.90;;;;;;5107139;28;20465;-60
2023/04/06 08:45:44;;;;;;;7.50;5.55;;;9.00;99.90;;;;;;5100218;28;20512;-60
2023/04/06 08:48:16;;;;;;;8.98;6.10;;;9.00;99.90;;;;;;5089123;28;20697;-60
2023/04/06 08:50:45;;;;;;;6.85;5.60;;;9.20;99.90;;;;;;5092861;28;20524;-59
2023/04/06 08:53:13;;;;;;;6.28;5.60;;;9.30;99.90;;;;;;5089099;28;20513;-59
2023/04/06 08:55:44;;;;;;;7.57;4.85;;;9.50;99.90;;;;;;5091985;28;20429;-59
2023/04/06 08:58:14;;;;;;;6.90;5.05;;;9.50;99.90;;;;;;5098222;28;20595;-60
2023/04/06 09:00:42;;;;;;;7.03;5.28;;;9.70;99.90;;;;;;5111812;28;20431;-59
2023/04/06 09:03:13;;;;;;;7.78;5.80;;;9.70;99.90;;;;;;5110719;28;20504;-60
2023/04/06 09:05:43;;;;;;;7.72;5.82;;;9.90;99.90;;;;;;5110382;28;20544;-59
2023/04/06 09:08:12;;;;;;;5.82;4.20;;;10.00;99.30;;;;;;5109590;28;20517;-60
2023/04/06 09:10:42;;;;;;;7.22;5.18;;;10.00;96.10;;;;;;5104724;28;20435;-59
2023/04/06 09:13:10;;;;;;;7.65;5.05;;;10.00;95.20;;;;;;5111768;28;20502;-60
2023/04/06 09:15:38;;;;;;;9.15;5.00;;;10.10;95.70;;;;;;5108417;28;20839;-60
2023/04/06 09:18:08;;;;;;;5.30;3.60;;;10.20;95.50;;;;;;5091627;28;20479;-59
2023/04/06 09:20:36;;;;;;;4.90;4.38;;;10.30;94.70;;;;;;5090534;28;20425;-59
2023/04/06 09:23:06;;;;;;;7.18;4.60;;;10.40;94.10;;;;;;5091207;28;20510;-59
2023/04/06 09:25:34;;;;;;;8.32;5.00;;;10.50;93.50;;;;;;5092737;28;20471;-59
2023/04/06 09:28:06;;;;;;;12.18;7.55;;;10.70;93.30;;;;;;5091525;28;20418;-60
2023/04/06 09:30:35;;;;;;;8.57;4.70;;;10.90;92.60;;;;;;5090837;28;20866;-60
2023/04/06 09:33:04;;;;;;;6.75;4.40;;;11.00;91.30;;;;;;5098072;28;20422;-59
2023/04/06 09:35:32;;;;;;;6.00;3.13;;;11.10;90.30;;;;;;5109547;28;20542;-60
2023/04/06 09:37:59;;;;;;;5.55;3.95;;;11.20;90.60;;;;;;5105089;28;20485;-60
2023/04/06 09:40:28;;;;;;;4.55;2.95;;;11.30;88.20;;;;;;5104131;28;20558;-60
2023/04/06 09:42:57;;;;;;;5.90;3.58;;;11.20;85.90;;;;;;5110864;28;20426;-60
2023/04/06 09:45:26;;;;;;;5.40;3.58;;;11.10;86.40;;;;;;5110836;28;20485;-59
2023/04/06 09:47:56;;;;;;;5.80;3.50;;;11.20;86.40;;;;;;5108133;28;20439;-60
2023/04/06 09:50:24;;;;;;;4.80;3.13;;;11.30;85.40;;;;;;5110646;28;20470;-60
2023/04/06 09:52:55;;;;;;;5.20;3.45;;;11.30;82.60;;;;;;5110666;28;20799;-59
2023/04/06 09:55:31;;;;;;;3.92;2.90;;;11.40;83.40;;;;;;5109501;28;20511;-61
2023/04/06 09:58:06;;;;;;;4.67;2.90;;;11.60;81.90;;;;;;5108498;28;20510;-61
2023/04/06 10:00:42;;;;;;;3.88;2.47;;;11.90;80.50;;;;;;5112115;28;20424;-61
2023/04/06 10:03:19;;;;;;;5.22;2.95;;;12.10;77.80;;;;;;5113742;28;20416;-58
2023/04/06 10:05:53;;;;;;;4.45;2.72;;;12.40;78.20;;;;;;5106636;28;21018;-59
2023/04/06 10:08:21;;;;;;;5.00;2.97;;;12.70;71.80;;;;;;5095503;28;20429;-60
2023/04/06 10:10:51;;;;;;;5.03;3.10;;;12.90;70.90;;;;;;5091820;28;20430;-60
2023/04/06 10:13:21;;;;;;;3.58;2.30;;;12.90;69.60;;;;;;5093850;28;20490;-60
2023/04/06 10:15:49;;;;;;;3.70;2.35;;;13.20;67.80;;;;;;5098948;28;20464;-59
2023/04/06 10:18:20;;;;;;;4.50;2.73;;;13.30;65.90;;;;;;5094138;28;20422;-59
2023/04/06 10:20:52;;;;;;;4.78;2.50;;;13.40;60.00;;;;;;5093036;28;20430;-60
2023/04/06 10:23:25;;;;;;;4.97;2.45;;;13.10;60.60;;;;;;5093210;28;20803;-60
2023/04/06 10:25:58;;;;;;;4.40;2.30;;;13.30;63.40;;;;;;5107903;28;20439;-60
2023/04/06 10:28:31;;;;;;;4.38;2.55;;;13.70;58.40;;;;;;5106392;28;20861;-60
2023/04/06 10:31:02;;;;;;;3.20;2.38;;;13.70;55.90;;;;;;5093896;28;20756;-61
2023/04/06 10:33:31;;;;;;;2.53;1.80;;;13.40;55.70;;;;;;5093788;28;20444;-61
2023/04/06 10:36:10;;;;;;;3.90;2.00;;;13.30;56.90;;;;;;5099447;28;20439;-60
2023/04/06 10:38:39;;;;;;;3.35;2.10;;;13.50;55.20;;;;;;5097839;28;20774;-60
2023/04/06 10:41:07;;;;;;;2.80;1.85;;;13.60;54.30;;;;;;5097785;28;20438;-60
2023/04/06 10:43:37;;;;;;;3.25;2.30;;;13.60;54.50;;;;;;5096645;28;20625;-60
2023/04/06 10:46:06;;;;;;;2.45;1.60;;;13.50;54.60;;;;;;5095204;28;20428;-60
2023/04/06 10:48:42;;;;;;;3.20;2.00;;;13.50;54.40;;;;;;5101530;28;20458;-60
2023/04/06 10:51:12;;;;;;;3.17;1.70;;;13.70;53.40;;;;;;5112125;28;20853;-62
2023/04/06 10:53:40;;;;;;;4.10;2.10;;;13.70;51.90;;;;;;5114040;28;20728;-61
2023/04/06 10:56:12;;;;;;;3.03;1.97;;;13.50;50.90;;;;;;5101902;28;20471;-61
2023/04/06 10:58:46;;;;;;;3.20;1.80;;;13.00;50.80;;;;;;5094093;28;20418;-60
2023/04/06 11:01:13;;;;;;;3.10;1.55;;;13.10;52.80;;;;;;5093738;28;20429;-60
2023/04/06 11:03:49;;;;;;;2.50;1.60;;;13.60;52.40;;;;;;5103168;28;20507;-61
2023/04/06 11:06:21;;;;;;;3.00;1.80;;;14.40;52.40;;;;;;5092432;28;20432;-61
2023/04/06 11:08:49;;;;;;;2.80;1.40;;;14.60;49.50;;;;;;5105212;28;20715;-61
2023/04/06 11:11:19;;;;;;;2.85;1.90;;;14.50;48.80;;;;;;5103005;28;20686;-61
2023/04/06 11:13:50;;;;;;;2.40;1.80;;;14.10;49.00;;;;;;5100597;28;20421;-64
2023/04/06 11:16:19;;;;;;;2.67;1.83;;;14.40;49.10;;;;;;5102689;28;20676;-62
2023/04/06 11:18:51;;;;;;;3.88;2.00;;;14.60;48.60;;;;;;5110845;28;20411;-62
2023/04/06 11:21:20;;;;;;;2.53;1.73;;;14.80;48.00;;;;;;5101090;28;20514;-62
2023/04/06 11:23:47;;;;;;;2.40;1.60;;;15.10;47.30;;;;;;5095989;28;20461;-62
2023/04/06 11:26:15;;;;;;;2.10;1.70;;;15.00;47.70;;;;;;5094846;28;20739;-61
2023/04/06 11:28:45;;;;;;;2.70;1.50;;;14.80;46.60;;;;;;5111027;28;20630;-62
2023/04/06 11:31:14;;;;;;;2.47;1.77;;;15.00;47.80;;;;;;5111392;28;20430;-60
2023/04/06 11:33:42;;;;;;;2.88;2.08;;;15.20;46.10;;;;;;5091551;28;20418;-61
2023/04/06 11:36:10;;;;;;;2.80;2.10;;;15.40;45.90;;;;;;5092736;28;20868;-61
2023/04/06 11:38:40;;;;;;;3.40;2.30;;;15.40;45.10;;;;;;5093492;28;20682;-61
2023/04/06 11:41:08;;;;;;;3.33;1.93;;;15.40;46.50;;;;;;5093922;28;20434;-62
2023/04/06 11:43:35;;;;;;;2.60;1.60;;;15.80;46.00;;;;;;5090930;28;20452;-63
2023/04/06 11:46:04;;;;;;;3.22;1.70;;;15.50;44.90;;;;;;5092686;28;20434;-62
2023/04/06 11:48:33;;;;;;;2.38;1.70;;;15.20;44.80;;;;;;5094099;28;20479;-63
2023/04/06 11:51:04;;;;;;;2.90;1.70;;;14.60;45.00;;;;;;5093029;28;20829;-62
2023/04/06 11:53:33;;;;;;;2.40;1.60;;;14.20;45.30;;;;;;5093198;28;20754;-62
2023/04/06 11:56:00;;;;;;;1.98;1.60;;;14.70;45.50;;;;;;5093761;28;20426;-62
2023/04/06 11:58:28;;;;;;;2.63;1.80;;;14.80;44.20;;;;;;5093594;28;20865;-62
2023/04/06 12:01:03;;;;;;;2.35;2.15;;;14.50;44.50;;;;;;5109466;28;20420;-61
2023/04/06 12:03:32;;;;;;;3.53;1.90;;;15.00;44.70;;;;;;5112497;28;20805;-62
2023/04/06 12:06:00;;;;;;;2.40;1.40;;;15.10;44.50;;;;;;5111155;28;20432;-61
2023/04/06 12:08:27;;;;;;;2.15;1.30;;;15.60;44.90;;;;;;5112598;28;20416;-60
2023/04/06 12:10:57;;;;;;;2.38;1.65;;;15.50;43.00;;;;;;5098826;28;20466;-60
2023/04/06 12:13:24;;;;;;;2.88;1.63;;;15.70;43.50;;;;;;5092874;28;20418;-60
2023/04/06 12:15:52;;;;;;;2.65;1.60;;;15.60;43.00;;;;;;5103045;28;20696;-60
2023/04/06 12:18:19;;;;;;;2.40;1.50;;;15.60;42.90;;;;;;5111961;28;20416;-60
2023/04/06 12:20:48;;;;;;;2.10;1.48;;;15.20;43.10;;;;;;5110159;28;20432;-61
2023/04/06 12:23:16;;;;;;;3.42;1.90;;;15.70;43.50;;;;;;5102381;28;20426;-61
2023/04/06 12:25:45;;;;;;;3.67;1.80;;;16.20;42.50;;;;;;5094135;28;20462;-60
2023/04/06 12:28:12;;;;;;;3.57;1.50;;;16.10;41.00;;;;;;5104968;28;20481;-60
2023/04/06 12:30:42;;;;;;;4.15;1.73;;;15.50;41.40;;;;;;5089728;28;20509;-60
2023/04/06 12:33:09;;;;;;;2.47;1.85;;;15.10;41.20;;;;;;5100629;28;20827;-60
2023/04/06 12:35:38;;;;;;;2.40;1.63;;;14.90;41.50;;;;;;5104440;28;20450;-60
2023/04/06 12:38:07;;;;;;;3.00;1.80;;;15.20;42.90;;;;;;5101766;28;20453;-60
2023/04/06 12:40:38;;;;;;;2.92;1.40;;;15.80;42.80;;;;;;5107389;28;20523;-60
2023/04/06 12:43:05;;;;;;;3.55;1.77;;;16.50;41.90;;;;;;5113364;28;20400;-60
2023/04/06 12:45:32;;;;;;;2.30;1.45;;;17.00;41.40;;;;;;5107160;28;20819;-60
2023/04/06 12:48:00;;;;;;;3.00;1.58;;;16.60;39.80;;;;;;5094422;28;20509;-60
2023/04/06 12:50:28;;;;;;;2.70;1.48;;;16.40;39.60;;;;;;5096755;28;20428;-60
2023/04/06 12:52:55;;;;;;;2.40;1.60;;;16.20;40.30;;;;;;5111014;28;20460;-60
2023/04/06 12:55:23;;;;;;;2.92;1.50;;;15.70;40.00;;;;;;5110172;28;20428;-60
2023/04/06 12:57:51;;;;;;;2.63;1.45;;;15.10;39.90;;;;;;5095603;28;20910;-58